Time;durP1;ratioP1;P1;durP2;ratioP2;P2;SDS_P1;SDS_P2;PMS_P1;PMS_P2;Temp;Humidity;BMP_temperature;BMP_pressure;BME280_temperature;BME280_humidity;BME280_pressure;Samples;Min_cycle;Max_cycle;Signal;HPM_P1;HPM_P2
2023/11/07 00:02:11;;;;;;;4.25;2.08;;;;;;;12.11;62.16;98615.63;5092032;28;20788;-48
2023/11/07 00:04:37;;;;;;;10.52;8.85;;;;;;;11.74;62.81;98614.56;5091891;28;20055;-48
2023/11/07 00:07:03;;;;;;;17.67;15.48;;;;;;;11.47;63.41;98619.94;5090663;28;20024;-48
2023/11/07 00:09:28;;;;;;;5.53;3.70;;;;;;;11.36;64.04;98615.31;5091913;28;20023;-48
2023/11/07 00:11:55;;;;;;;4.32;2.10;;;;;;;11.25;64.26;98624.66;5091858;28;20028;-48
2023/11/07 00:14:21;;;;;;;3.28;1.98;;;;;;;11.16;64.73;98631.13;5090606;28;20170;-48
2023/11/07 00:16:50;;;;;;;3.08;1.40;;;;;;;11.13;64.57;98634.97;5091851;28;20016;-48
2023/11/07 00:19:16;;;;;;;7.43;2.35;;;;;;;11.09;64.96;98636.41;5090356;28;20051;-48
2023/11/07 00:21:43;;;;;;;6.03;2.42;;;;;;;11.29;65.19;98631.09;5091728;28;20028;-48
2023/11/07 00:24:09;;;;;;;4.60;2.30;;;;;;;11.39;64.68;98642.00;5091692;28;20023;-48
2023/11/07 00:26:35;;;;;;;5.88;1.50;;;;;;;11.46;63.97;98643.78;5091767;28;20485;-48
2023/11/07 00:29:01;;;;;;;2.85;1.40;;;;;;;11.57;63.53;98643.16;5090426;28;20569;-48
2023/11/07 00:31:27;;;;;;;3.95;1.55;;;;;;;11.57;63.26;98645.78;5090400;28;20232;-48
2023/11/07 00:33:54;;;;;;;3.97;1.50;;;;;;;11.57;62.85;98643.97;5090452;28;20048;-48
2023/11/07 00:36:20;;;;;;;6.68;3.47;;;;;;;11.88;63.79;98642.41;5091674;28;20464;-48
2023/11/07 00:38:45;;;;;;;5.18;1.77;;;;;;;12.36;62.03;98646.44;5090330;28;20115;-48
2023/11/07 00:41:13;;;;;;;2.50;1.30;;;;;;;12.67;60.32;98631.63;5090338;28;20489;-48
2023/11/07 00:43:43;;;;;;;3.53;1.48;;;;;;;12.84;60.10;98634.50;5091553;28;20017;-48
2023/11/07 00:46:08;;;;;;;5.80;2.45;;;;;;;13.08;58.90;98633.69;5091895;28;20032;-48
2023/11/07 00:48:34;;;;;;;4.45;2.45;;;;;;;13.36;58.93;98624.50;5091514;28;20045;-48
2023/11/07 00:51:00;;;;;;;4.97;4.35;;;;;;;13.75;58.55;98620.59;5091580;28;20393;-48
2023/11/07 00:53:26;;;;;;;3.80;1.85;;;;;;;14.01;57.72;98629.22;5090162;28;20089;-47
2023/11/07 00:55:51;;;;;;;4.30;1.85;;;;;;;14.07;56.13;98623.03;5091489;28;20055;-48
2023/11/07 00:58:20;;;;;;;2.90;1.60;;;;;;;13.68;56.45;98621.72;5091478;28;20032;-48
2023/11/07 01:00:46;;;;;;;2.75;1.50;;;;;;;13.40;56.18;98628.34;5091376;28;20032;-48
2023/11/07 01:03:12;;;;;;;3.25;1.80;;;;;;;13.03;55.62;98635.38;5091383;28;20381;-48
2023/11/07 01:05:38;;;;;;;3.85;1.40;;;;;;;12.41;57.23;98643.97;5093441;28;20020;-48
2023/11/07 01:08:04;;;;;;;5.63;1.88;;;;;;;11.77;59.03;98653.56;5095588;28;20028;-48
2023/11/07 01:10:32;;;;;;;2.95;1.95;;;;;;;11.47;61.12;98653.28;5095156;28;20020;-48
2023/11/07 01:12:59;;;;;;;4.43;1.77;;;;;;;11.33;61.10;98661.22;5095345;28;20047;-47
2023/11/07 01:15:25;;;;;;;7.07;1.80;;;;;;;11.03;63.22;98657.41;5095004;28;20027;-48
2023/11/07 01:17:51;;;;;;;2.90;1.70;;;;;;;11.31;64.10;98665.88;5094952;28;20048;-48
2023/11/07 01:20:17;;;;;;;4.13;1.80;;;;;;;11.60;62.57;98661.94;5094993;28;20069;-49
2023/11/07 01:22:44;;;;;;;7.78;2.30;;;;;;;11.90;63.24;98666.72;5093638;28;20028;-48
2023/11/07 01:25:10;;;;;;;3.20;1.48;;;;;;;12.37;62.12;98664.66;5094850;28;20078;-48
2023/11/07 01:27:36;;;;;;;3.72;1.65;;;;;;;12.61;61.10;98667.50;5094914;28;20024;-48
2023/11/07 01:30:04;;;;;;;5.20;2.65;;;;;;;12.80;60.58;98671.03;5094798;28;20024;-48
2023/11/07 01:32:31;;;;;;;5.15;1.80;;;;;;;13.35;59.89;98670.34;5093800;28;20099;-48
2023/11/07 01:34:57;;;;;;;5.78;1.95;;;;;;;13.62;57.89;98670.06;5094744;28;20026;-48
2023/11/07 01:37:23;;;;;;;6.43;2.42;;;;;;;13.40;57.07;98670.50;5093325;28;20107;-48
2023/11/07 01:39:49;;;;;;;2.85;2.30;;;;;;;12.87;57.39;98678.88;5093359;28;20027;-48
2023/11/07 01:42:15;;;;;;;2.53;1.45;;;;;;;12.79;58.58;98682.56;5094625;28;20020;-48
2023/11/07 01:44:52;;;;;;;3.50;1.60;;;;;;;12.43;58.23;98684.03;5093128;28;20570;-48
2023/11/07 01:47:20;;;;;;;5.85;2.45;;;;;;;12.03;59.54;98684.25;5094481;28;20059;-48
2023/11/07 01:49:47;;;;;;;7.40;5.20;;;;;;;11.96;60.79;98675.59;5076545;28;20074;-48
2023/11/07 01:52:14;;;;;;;3.75;1.83;;;;;;;12.25;60.47;98681.31;5094397;28;20023;-48
2023/11/07 01:54:39;;;;;;;5.30;1.58;;;;;;;11.99;59.74;98680.41;5093155;28;20576;-48
2023/11/07 01:57:05;;;;;;;3.97;1.70;;;;;;;11.66;60.38;98683.97;5092947;28;20051;-48
2023/11/07 01:59:32;;;;;;;10.68;3.88;;;;;;;11.60;62.39;98687.41;5094273;28;20458;-48
2023/11/07 02:02:01;;;;;;;3.25;2.13;;;;;;;11.72;63.80;98679.69;5094231;28;20016;-48
2023/11/07 02:04:27;;;;;;;3.00;1.52;;;;;;;11.23;63.79;98683.63;5092728;28;20024;-48
2023/11/07 02:06:52;;;;;;;5.10;2.00;;;;;;;10.80;66.67;98684.88;5092780;28;20032;-48
2023/11/07 02:09:20;;;;;;;4.00;1.90;;;;;;;10.65;68.96;98682.47;5092764;28;20505;-48
2023/11/07 02:11:46;;;;;;;13.35;8.82;;;;;;;10.43;69.52;98683.66;5094000;28;20521;-48
2023/11/07 02:14:28;;;;;;;12.57;10.93;;;;;;;10.65;71.86;98679.03;5075820;28;20024;-48
2023/11/07 02:16:54;;;;;;;4.28;3.22;;;;;;;11.07;71.19;98675.19;5093800;28;20031;-48
2023/11/07 02:19:20;;;;;;;12.93;2.20;;;;;;;11.42;70.48;98677.56;5092389;28;20051;-48
2023/11/07 02:21:46;;;;;;;3.45;1.70;;;;;;;11.68;69.08;98674.03;5093850;28;20055;-48
2023/11/07 02:24:11;;;;;;;9.05;2.45;;;;;;;11.62;67.72;98679.31;5075582;28;20043;-48
2023/11/07 02:26:38;;;;;;;12.88;10.70;;;;;;;11.67;68.05;98668.97;5092331;28;20489;-48
2023/11/07 02:29:05;;;;;;;57.50;52.40;;;;;;;11.79;69.95;98672.56;5093705;28;20519;-48
2023/11/07 02:31:31;;;;;;;69.35;63.58;;;;;;;11.75;71.18;98666.94;5093593;28;20016;-48
2023/11/07 02:33:57;;;;;;;34.53;31.73;;;;;;;11.40;71.60;98667.25;5092267;28;20100;-48
2023/11/07 02:36:23;;;;;;;20.83;18.70;;;;;;;11.31;72.89;98673.75;5092175;28;20486;-48
2023/11/07 02:38:48;;;;;;;47.45;43.03;;;;;;;11.09;72.08;98677.63;5092156;28;20027;-49
2023/11/07 02:41:14;;;;;;;229.48;207.50;;;;;;;10.67;71.86;98675.19;5092059;28;20016;-48
2023/11/07 02:43:40;;;;;;;33.67;30.30;;;;;;;10.40;72.65;98682.22;5093231;28;20406;-48
2023/11/07 02:46:06;;;;;;;149.45;134.35;;;;;;;10.25;73.49;98686.81;5091949;28;20243;-48
2023/11/07 02:48:33;;;;;;;26.00;23.40;;;;;;;10.22;73.90;98693.22;5093259;28;20031;-48
2023/11/07 02:50:59;;;;;;;11.38;9.27;;;;;;;10.30;74.34;98689.66;5093215;28;20035;-48
2023/11/07 02:53:25;;;;;;;60.55;55.05;;;;;;;10.44;73.98;98690.50;5091857;28;20073;-48
2023/11/07 02:55:50;;;;;;;42.45;37.50;;;;;;;10.82;74.53;98680.22;5093130;28;20020;-48
2023/11/07 02:58:16;;;;;;;13.32;10.07;;;;;;;11.15;72.29;98687.31;5093080;28;20149;-48
2023/11/07 03:00:44;;;;;;;16.02;11.65;;;;;;;11.29;72.13;98682.81;5091752;28;20084;-48
2023/11/07 03:03:10;;;;;;;8.48;3.30;;;;;;;11.49;71.64;98672.28;5091814;28;20020;-48
2023/11/07 03:05:36;;;;;;;4.85;2.25;;;;;;;11.62;70.37;98680.13;5092824;28;20185;-48
2023/11/07 03:08:02;;;;;;;3.13;1.75;;;;;;;11.42;69.00;98674.13;5092999;28;20031;-48
2023/11/07 03:10:27;;;;;;;6.20;3.97;;;;;;;11.13;69.10;98674.38;5091617;28;20035;-48
2023/11/07 03:12:53;;;;;;;8.23;2.65;;;;;;;10.94;69.59;98681.25;5091574;28;20114;-48
2023/11/07 03:15:19;;;;;;;3.33;1.88;;;;;;;11.12;70.03;98685.88;5092803;28;20024;-48
2023/11/07 03:17:45;;;;;;;4.70;2.08;;;;;;;11.22;68.68;98679.41;5091223;28;20564;-49
2023/11/07 03:20:11;;;;;;;3.53;2.00;;;;;;;11.29;68.39;98688.06;5092747;28;20043;-49
2023/11/07 03:22:37;;;;;;;2.20;1.50;;;;;;;11.32;67.87;98692.94;5092689;28;20050;-48
2023/11/07 03:25:04;;;;;;;4.70;1.65;;;;;;;11.18;66.62;98682.44;5092539;28;20099;-48
2023/11/07 03:27:29;;;;;;;5.38;1.27;;;;;;;11.13;66.79;98684.09;5091947;28;20034;-48
2023/11/07 03:29:55;;;;;;;3.97;1.60;;;;;;;11.22;67.02;98679.41;5092581;28;20028;-49
2023/11/07 03:32:21;;;;;;;3.88;1.90;;;;;;;11.36;66.90;98688.88;5092382;28;20509;-48
2023/11/07 03:34:47;;;;;;;5.82;2.10;;;;;;;12.11;66.92;98675.31;5091162;28;20489;-48
2023/11/07 03:37:12;;;;;;;4.57;1.40;;;;;;;12.52;64.63;98681.97;5091149;28;20020;-48
2023/11/07 03:39:38;;;;;;;2.92;1.80;;;;;;;12.19;64.11;98682.94;5092613;28;20031;-48
2023/11/07 03:42:05;;;;;;;3.38;1.83;;;;;;;11.76;64.53;98686.94;5091021;28;20020;-48
2023/11/07 03:44:31;;;;;;;2.75;1.08;;;;;;;11.56;65.06;98681.75;5090919;28;20032;-48
2023/11/07 03:46:56;;;;;;;2.60;1.23;;;;;;;11.33;64.44;98679.59;5092225;28;20516;-48
2023/11/07 03:49:22;;;;;;;5.22;3.78;;;;;;;11.18;65.04;98681.63;5092448;28;20031;-48
2023/11/07 03:51:48;;;;;;;4.82;1.77;;;;;;;11.08;64.84;98679.41;5092214;28;20051;-48
2023/11/07 03:54:14;;;;;;;3.58;1.58;;;;;;;10.95;65.47;98677.63;5090789;28;20031;-48
2023/11/07 03:56:40;;;;;;;4.35;1.77;;;;;;;10.96;65.19;98676.59;5092129;28;20486;-48
2023/11/07 03:59:06;;;;;;;4.22;1.88;;;;;;;10.88;65.04;98686.50;5092147;28;20032;-48
2023/11/07 04:01:39;;;;;;;4.53;1.40;;;;;;;11.05;65.26;98681.66;5092029;28;20410;-48
2023/11/07 04:04:06;;;;;;;5.90;2.28;;;;;;;10.97;64.85;98680.84;5091945;28;20031;-48
2023/11/07 04:06:31;;;;;;;2.67;1.20;;;;;;;10.99;65.73;98683.28;5090628;28;20024;-48
2023/11/07 04:08:58;;;;;;;3.53;1.35;;;;;;;10.97;64.80;98675.59;5090645;28;20039;-48
2023/11/07 04:11:24;;;;;;;2.42;1.40;;;;;;;10.76;64.29;98679.22;5090747;28;20019;-48
2023/11/07 04:13:51;;;;;;;2.78;1.15;;;;;;;10.57;64.91;98675.59;5091896;28;20029;-48
2023/11/07 04:16:18;;;;;;;2.28;1.45;;;;;;;10.44;64.97;98687.88;5091780;28;20028;-48
2023/11/07 04:18:44;;;;;;;6.82;5.10;;;;;;;10.35;65.17;98680.19;5091669;28;20048;-49
2023/11/07 04:21:10;;;;;;;5.15;1.98;;;;;;;10.22;65.25;98688.00;5090506;28;20062;-47
2023/11/07 04:23:36;;;;;;;3.38;1.58;;;;;;;10.07;65.74;98684.72;5090424;28;20442;-48
2023/11/07 04:26:03;;;;;;;2.22;1.23;;;;;;;9.97;65.82;98679.84;5091806;28;20393;-48
2023/11/07 04:28:31;;;;;;;2.55;1.38;;;;;;;9.88;66.29;98679.22;5091811;28;20028;-48
2023/11/07 04:30:56;;;;;;;4.65;2.40;;;;;;;9.84;66.42;98680.63;5091661;28;20517;-48
2023/11/07 04:33:22;;;;;;;2.40;1.45;;;;;;;9.86;66.39;98681.22;5091954;28;20025;-48
2023/11/07 04:35:48;;;;;;;8.23;2.05;;;;;;;9.82;66.17;98685.25;5090428;28;20023;-48
2023/11/07 04:38:13;;;;;;;8.50;1.70;;;;;;;9.84;65.92;98675.38;5091677;28;20445;-48
2023/11/07 04:40:40;;;;;;;3.85;1.77;;;;;;;9.83;65.99;98679.00;5094269;28;20024;-48
2023/11/07 04:43:07;;;;;;;2.55;1.33;;;;;;;9.84;65.84;98679.78;5094479;28;20050;-48
2023/11/07 04:45:34;;;;;;;4.07;1.30;;;;;;;9.88;65.34;98681.84;5095540;28;20024;-48
2023/11/07 04:48:00;;;;;;;2.92;1.50;;;;;;;9.88;65.50;98675.78;5095583;28;20028;-48
2023/11/07 04:50:29;;;;;;;12.40;10.32;;;;;;;9.89;65.30;98672.16;5095518;28;20013;-48
2023/11/07 04:52:55;;;;;;;2.67;1.80;;;;;;;9.91;65.10;98672.78;5095569;28;20020;-48
2023/11/07 04:55:22;;;;;;;2.95;1.20;;;;;;;9.94;64.85;98675.81;5094120;28;20028;-48
2023/11/07 04:57:49;;;;;;;2.95;1.27;;;;;;;10.03;64.81;98686.94;5094206;28;20058;-48
2023/11/07 05:00:16;;;;;;;3.25;1.17;;;;;;;10.12;64.70;98690.19;5094145;28;20073;-48
2023/11/07 05:02:42;;;;;;;3.00;1.40;;;;;;;10.23;64.54;98692.25;5095393;28;20020;-48
2023/11/07 05:05:09;;;;;;;5.35;1.35;;;;;;;10.35;64.32;98692.50;5095215;28;20267;-48
2023/11/07 05:07:35;;;;;;;3.75;1.20;;;;;;;10.42;63.62;98688.06;5093931;28;20030;-48
2023/11/07 05:10:03;;;;;;;2.40;1.02;;;;;;;10.47;63.85;98693.53;5093989;28;20103;-48
2023/11/07 05:12:30;;;;;;;4.05;1.70;;;;;;;10.49;63.55;98686.28;5095201;28;20028;-48
2023/11/07 05:14:57;;;;;;;4.25;1.50;;;;;;;10.50;63.64;98689.69;5095177;28;20066;-48
2023/11/07 05:17:22;;;;;;;2.50;1.30;;;;;;;10.52;63.39;98687.69;5094836;28;20040;-49
2023/11/07 05:19:48;;;;;;;4.32;1.60;;;;;;;10.54;63.10;98673.38;5095086;28;20405;-48
2023/11/07 05:22:14;;;;;;;5.55;1.10;;;;;;;10.53;63.13;98689.31;5094974;28;20160;-48
2023/11/07 05:24:40;;;;;;;3.83;1.77;;;;;;;10.53;63.23;98687.50;5094886;28;20107;-48
2023/11/07 05:27:06;;;;;;;4.22;1.20;;;;;;;10.59;63.40;98688.50;5093555;28;20027;-48
2023/11/07 05:29:32;;;;;;;4.88;2.30;;;;;;;10.73;63.85;98689.34;5093553;28;20034;-48
2023/11/07 05:31:58;;;;;;;2.80;1.30;;;;;;;10.87;63.49;98685.69;5093459;28;20040;-48
2023/11/07 05:34:24;;;;;;;8.60;1.08;;;;;;;11.07;62.82;98688.31;5094710;28;20040;-48
2023/11/07 05:36:51;;;;;;;3.13;1.25;;;;;;;11.29;62.54;98690.69;5093414;28;20024;-48
2023/11/07 05:39:17;;;;;;;10.57;1.42;;;;;;;11.58;62.20;98686.81;5093302;28;20035;-48
2023/11/07 05:41:43;;;;;;;7.82;1.83;;;;;;;11.79;60.93;98676.03;5094609;28;20028;-48
2023/11/07 05:44:09;;;;;;;3.15;1.58;;;;;;;11.85;60.56;98689.34;5094479;28;20024;-48
2023/11/07 05:46:35;;;;;;;4.20;1.30;;;;;;;11.85;60.22;98684.09;5094522;28;20016;-48
2023/11/07 05:49:00;;;;;;;2.55;1.35;;;;;;;11.83;60.67;98694.00;5094425;28;20020;-48
2023/11/07 05:51:26;;;;;;;5.80;1.25;;;;;;;11.80;59.70;98692.63;5092364;28;20036;-48
2023/11/07 05:53:52;;;;;;;2.53;0.90;;;;;;;11.67;60.02;98692.66;5093081;28;20032;-48
2023/11/07 05:56:19;;;;;;;2.30;1.20;;;;;;;11.49;59.17;98691.50;5094217;28;20065;-48
2023/11/07 05:58:46;;;;;;;9.73;1.85;;;;;;;11.31;60.19;98694.75;5094292;28;20031;-48
2023/11/07 06:01:12;;;;;;;7.30;4.05;;;;;;;11.49;60.68;98688.03;5094263;28;20020;-48
2023/11/07 06:03:39;;;;;;;4.60;1.60;;;;;;;11.55;59.98;98690.66;5094130;28;20028;-49
2023/11/07 06:06:05;;;;;;;8.52;1.48;;;;;;;11.43;60.11;98700.19;5094182;28;20024;-48
2023/11/07 06:08:30;;;;;;;10.27;1.40;;;;;;;11.37;60.37;98701.81;5094112;28;20510;-48
2023/11/07 06:10:56;;;;;;;5.10;1.33;;;;;;;11.42;60.79;98700.41;5092784;28;20039;-48
2023/11/07 06:13:22;;;;;;;6.93;1.52;;;;;;;11.50;60.10;98700.19;5092692;28;20490;-48
2023/11/07 06:15:48;;;;;;;5.18;1.13;;;;;;;11.42;60.13;98701.19;5093909;28;20031;-48
2023/11/07 06:18:14;;;;;;;6.57;1.25;;;;;;;11.36;60.00;98704.66;5093707;28;20115;-49
2023/11/07 06:20:40;;;;;;;3.28;1.10;;;;;;;11.32;59.72;98709.50;5093881;28;20051;-48
2023/11/07 06:23:05;;;;;;;4.85;1.02;;;;;;;11.34;59.36;98704.84;5094122;28;20497;-48
2023/11/07 06:25:31;;;;;;;3.40;1.05;;;;;;;11.35;59.35;98709.09;5093650;28;20420;-48
2023/11/07 06:27:57;;;;;;;2.78;1.25;;;;;;;11.32;59.12;98704.25;5093671;28;20062;-48
2023/11/07 06:30:23;;;;;;;3.78;1.00;;;;;;;11.29;58.37;98715.19;5093589;28;20042;-48
2023/11/07 06:32:49;;;;;;;1.85;0.82;;;;;;;11.30;58.24;98710.72;5092305;28;20028;-48
2023/11/07 06:35:15;;;;;;;2.58;0.90;;;;;;;11.27;58.00;98719.81;5093539;28;20048;-48
2023/11/07 06:37:42;;;;;;;4.18;0.98;;;;;;;11.26;58.25;98712.16;5093578;28;20028;-48
2023/11/07 06:40:13;;;;;;;3.03;1.95;;;;;;;11.35;58.31;98713.56;5093457;28;20022;-48
2023/11/07 06:42:43;;;;;;;7.30;1.38;;;;;;;11.39;57.85;98722.66;5093454;28;20386;-48
2023/11/07 06:45:13;;;;;;;4.63;1.00;;;;;;;11.39;57.85;98726.06;5091938;28;20024;-48
2023/11/07 06:47:43;;;;;;;16.88;1.98;;;;;;;11.39;57.81;98725.28;5092063;28;20094;-48
2023/11/07 06:50:10;;;;;;;3.78;1.20;;;;;;;11.43;57.70;98730.91;5091975;28;20081;-48
2023/11/07 06:52:41;;;;;;;3.33;1.30;;;;;;;11.45;57.60;98729.72;5092061;28;20055;-48
2023/11/07 06:55:13;;;;;;;2.47;1.02;;;;;;;11.58;57.50;98736.75;5093081;28;20096;-48
2023/11/07 06:57:42;;;;;;;2.53;0.90;;;;;;;11.69;57.39;98737.94;5093476;28;20063;-48
2023/11/07 07:00:09;;;;;;;2.75;1.30;;;;;;;11.70;56.59;98732.47;5091904;28;20043;-48
2023/11/07 07:02:36;;;;;;;2.38;1.25;;;;;;;11.67;56.68;98742.59;5090769;28;20020;-48
2023/11/07 07:05:03;;;;;;;2.17;1.13;;;;;;;11.72;57.09;98738.34;5092904;28;20027;-48
2023/11/07 07:07:30;;;;;;;2.85;0.90;;;;;;;11.78;56.90;98748.03;5092940;28;20422;-48
2023/11/07 07:09:58;;;;;;;4.57;1.10;;;;;;;11.85;56.66;98749.81;5091779;28;20370;-48
2023/11/07 07:12:24;;;;;;;2.63;1.10;;;;;;;11.90;56.42;98748.22;5092824;28;20027;-49
2023/11/07 07:14:50;;;;;;;6.13;1.10;;;;;;;11.95;56.47;98751.06;5092834;28;20394;-48
2023/11/07 07:17:19;;;;;;;2.45;1.08;;;;;;;12.16;56.52;98765.75;5092492;28;20020;-49
2023/11/07 07:19:45;;;;;;;2.97;0.80;;;;;;;12.26;55.74;98752.16;5091578;28;20085;-49
2023/11/07 07:22:12;;;;;;;2.88;1.00;;;;;;;12.24;55.29;98764.72;5074611;28;20022;-48
2023/11/07 07:24:39;;;;;;;5.53;1.55;;;;;;;12.23;55.88;98772.81;5092528;28;20031;-48
2023/11/07 07:27:08;;;;;;;2.80;1.10;;;;;;;12.27;55.84;98771.38;5091398;28;20058;-48
2023/11/07 07:29:36;;;;;;;6.35;1.63;;;;;;;12.33;55.97;98778.44;5092807;28;20385;-48
2023/11/07 07:32:03;;;;;;;5.72;1.60;;;;;;;12.52;55.89;98780.16;5092452;28;20026;-48
2023/11/07 07:34:29;;;;;;;78.60;62.80;;;;;;;12.64;55.27;98774.25;5092486;28;20028;-47
2023/11/07 07:36:55;;;;;;;16.33;5.70;;;;;;;12.59;55.08;98777.50;5091380;28;20024;-48
2023/11/07 07:39:31;;;;;;;3.33;1.60;;;;;;;12.47;54.96;98785.25;5092300;28;20024;-48
2023/11/07 07:42:08;;;;;;;7.47;1.58;;;;;;;12.46;55.43;98788.09;5092403;28;20027;-48
2023/11/07 07:44:35;;;;;;;6.63;1.10;;;;;;;12.59;54.56;98786.19;5092266;28;20035;-48
2023/11/07 07:47:01;;;;;;;2.75;1.10;;;;;;;12.62;54.62;98786.81;5092206;28;20019;-48
2023/11/07 07:49:30;;;;;;;6.47;1.63;;;;;;;12.59;54.77;98796.72;5092258;28;20046;-48
2023/11/07 07:52:01;;;;;;;3.22;1.35;;;;;;;12.68;54.76;98802.56;5092183;28;20020;-49
2023/11/07 07:54:29;;;;;;;4.60;1.63;;;;;;;12.69;54.92;98804.16;5092206;28;20233;-49
2023/11/07 07:56:56;;;;;;;3.30;1.60;;;;;;;12.99;54.83;98807.03;5092137;28;20047;-48
2023/11/07 07:59:25;;;;;;;4.43;1.30;;;;;;;13.15;54.40;98802.28;5092080;28;20367;-48
2023/11/07 08:01:57;;;;;;;1.90;1.08;;;;;;;13.33;53.59;98806.81;5092147;28;20016;-47
2023/11/07 08:04:25;;;;;;;2.85;1.00;;;;;;;13.45;53.09;98794.56;5092050;28;20032;-48
2023/11/07 08:06:52;;;;;;;5.85;1.45;;;;;;;13.48;53.31;98803.84;5092013;28;20027;-48
2023/11/07 08:09:22;;;;;;;10.20;3.25;;;;;;;13.62;53.28;98812.47;5090864;28;20024;-48
2023/11/07 08:11:50;;;;;;;3.08;1.40;;;;;;;13.69;52.68;98815.84;5090735;28;20028;-48
2023/11/07 08:14:17;;;;;;;10.82;2.80;;;;;;;13.82;53.31;98825.47;5091606;28;20083;-47
2023/11/07 08:16:45;;;;;;;7.85;1.55;;;;;;;14.27;53.18;98823.38;5091863;28;20024;-48
2023/11/07 08:19:11;;;;;;;6.43;1.55;;;;;;;14.34;53.39;98818.00;5091658;28;20055;-48
2023/11/07 08:21:40;;;;;;;19.73;8.45;;;;;;;14.17;53.02;98823.09;5091755;28;20027;-48
2023/11/07 08:24:08;;;;;;;112.22;46.28;;;;;;;14.16;55.17;98824.91;5091764;28;20024;-48
2023/11/07 08:26:36;;;;;;;10.50;3.95;;;;;;;14.58;54.84;98827.69;5090544;28;20578;-48
2023/11/07 08:29:06;;;;;;;10.90;4.72;;;;;;;14.89;54.13;98832.97;5090611;28;20056;-48
2023/11/07 08:31:39;;;;;;;14.57;5.60;;;;;;;15.23;52.81;98830.66;5091711;28;20065;-48
2023/11/07 08:34:09;;;;;;;19.83;6.55;;;;;;;15.15;53.43;98832.63;5091739;28;20116;-48
2023/11/07 08:36:39;;;;;;;10.57;3.22;;;;;;;15.20;52.70;98834.56;5090460;28;20028;-48
2023/11/07 08:39:23;;;;;;;10.95;2.33;;;;;;;15.52;52.93;98843.03;5091693;28;20498;-48
2023/11/07 08:41:54;;;;;;;8.57;1.92;;;;;;;15.90;52.21;98838.34;5091700;28;20020;-48
2023/11/07 08:44:21;;;;;;;5.95;1.52;;;;;;;16.04;51.32;98844.22;5091573;28;20059;-49
2023/11/07 08:46:47;;;;;;;12.60;2.00;;;;;;;15.90;50.90;98843.66;5091664;28;20095;-48
2023/11/07 08:49:16;;;;;;;9.38;1.73;;;;;;;15.91;50.90;98840.75;5090262;28;20024;-48
2023/11/07 08:51:43;;;;;;;11.07;4.20;;;;;;;15.83;51.12;98848.25;5090256;28;20020;-48
2023/11/07 08:54:09;;;;;;;6.50;2.17;;;;;;;15.68;51.58;98856.63;5090210;28;20436;-48
2023/11/07 08:56:34;;;;;;;12.55;1.40;;;;;;;15.51;51.43;98853.81;5090220;28;20028;-49
2023/11/07 08:59:00;;;;;;;3.20;1.10;;;;;;;15.25;51.54;98855.88;5091528;28;20028;-48
2023/11/07 09:01:26;;;;;;;10.18;1.35;;;;;;;15.03;51.71;98860.03;5091446;28;20016;-48
2023/11/07 09:03:52;;;;;;;4.45;1.00;;;;;;;14.70;51.66;98866.56;5091448;28;20031;-48
2023/11/07 09:06:21;;;;;;;3.53;1.10;;;;;;;14.47;51.96;98867.22;5091399;28;20028;-48
2023/11/07 09:08:46;;;;;;;1.75;0.90;;;;;;;14.30;52.05;98867.00;5091366;28;20024;-48
2023/11/07 09:11:12;;;;;;;4.65;1.25;;;;;;;14.29;52.15;98860.13;5091353;28;20398;-48
2023/11/07 09:13:39;;;;;;;1.88;0.90;;;;;;;14.29;51.76;98868.03;5090204;28;20034;-48
2023/11/07 09:16:07;;;;;;;1.25;0.80;;;;;;;14.31;52.19;98860.72;5091253;28;20027;-48
2023/11/07 09:18:32;;;;;;;4.13;1.50;;;;;;;14.34;52.45;98865.53;5091005;28;20055;-49
2023/11/07 09:20:58;;;;;;;5.07;1.20;;;;;;;14.37;51.80;98870.38;5091244;28;20032;-48
2023/11/07 09:23:25;;;;;;;5.25;0.82;;;;;;;14.44;51.59;98872.94;5091250;28;20022;-48
2023/11/07 09:25:51;;;;;;;3.00;1.42;;;;;;;14.69;51.19;98871.06;5091958;28;20063;-48
2023/11/07 09:28:17;;;;;;;4.57;2.50;;;;;;;14.83;50.79;98871.69;5094852;28;20513;-48
2023/11/07 09:30:43;;;;;;;1.50;1.00;;;;;;;15.04;50.46;98877.50;5095094;28;20443;-48
2023/11/07 09:33:09;;;;;;;4.65;1.55;;;;;;;15.35;50.13;98871.97;5094749;28;20020;-48
2023/11/07 09:35:36;;;;;;;3.00;1.33;;;;;;;15.62;49.16;98873.41;5094813;28;20024;-48
2023/11/07 09:38:03;;;;;;;1.73;1.10;;;;;;;15.82;48.90;98868.63;5094745;28;20096;-49
2023/11/07 09:40:29;;;;;;;3.42;1.00;;;;;;;16.27;48.15;98870.66;5094599;28;20497;-48
2023/11/07 09:42:55;;;;;;;5.43;1.30;;;;;;;16.64;47.73;98875.66;5076529;28;20026;-48
2023/11/07 09:45:21;;;;;;;6.20;1.10;;;;;;;16.78;46.36;98868.22;5093127;28;20071;-48
2023/11/07 09:47:48;;;;;;;3.13;1.42;;;;;;;17.02;46.29;98865.50;5094580;28;20020;-48
2023/11/07 09:50:22;;;;;;;5.30;4.50;;;;;;;17.26;45.18;98871.50;5094401;28;20405;-48
2023/11/07 09:52:52;;;;;;;2.75;1.45;;;;;;;17.36;45.00;98880.44;5093334;28;20516;-48
2023/11/07 09:55:18;;;;;;;1.83;0.73;;;;;;;17.50;43.49;98877.47;5093155;28;20036;-48
2023/11/07 09:58:00;;;;;;;4.32;1.02;;;;;;;17.85;43.49;98873.78;5093023;28;20028;-46
2023/11/07 10:00:30;;;;;;;3.03;0.57;;;;;;;18.27;41.60;98876.78;5094364;28;20475;-46
2023/11/07 10:02:58;;;;;;;2.22;1.10;;;;;;;18.11;41.27;98877.59;5094252;28;20071;-46
2023/11/07 10:05:25;;;;;;;3.95;1.95;;;;;;;17.95;41.19;98879.25;5094022;28;20110;-46
2023/11/07 10:07:51;;;;;;;2.25;0.60;;;;;;;17.86;40.21;98880.72;5094176;28;20019;-46
2023/11/07 10:10:18;;;;;;;4.88;1.05;;;;;;;17.72;41.02;98882.84;5094105;28;20039;-46
2023/11/07 10:12:45;;;;;;;2.95;1.30;;;;;;;17.95;40.94;98882.72;5094106;28;20024;-46
2023/11/07 10:15:18;;;;;;;5.95;2.85;;;;;;;18.16;40.59;98880.34;5092677;28;20406;-46
2023/11/07 10:18:08;;;;;;;3.72;0.90;;;;;;;18.64;39.68;98875.38;5092481;28;20055;-46
2023/11/07 10:20:47;;;;;;;0.85;0.60;;;;;;;18.94;39.09;98870.41;5093903;28;20032;-46
2023/11/07 10:23:13;;;;;;;2.25;0.60;;;;;;;19.09;38.06;98874.28;5093892;28;20398;-46
2023/11/07 10:25:38;;;;;;;1.65;0.80;;;;;;;18.91;37.72;98880.75;5093698;28;20012;-46
2023/11/07 10:28:06;;;;;;;1.35;0.50;;;;;;;18.48;37.74;98882.34;5093723;28;20101;-46
2023/11/07 10:30:48;;;;;;;1.58;0.52;;;;;;;18.33;38.04;98875.81;5093717;28;20016;-46
2023/11/07 10:33:28;;;;;;;1.08;0.60;;;;;;;18.65;38.33;98875.13;5093635;28;20038;-47
2023/11/07 10:36:01;;;;;;;6.68;1.33;;;;;;;19.24;38.26;98871.78;5092249;28;20085;-46
2023/11/07 10:38:31;;;;;;;4.35;0.60;;;;;;;19.57;37.24;98869.91;5093665;28;20032;-46
2023/11/07 10:40:58;;;;;;;0.63;0.45;;;;;;;19.43;36.49;98863.41;5093579;28;20035;-46
2023/11/07 10:43:35;;;;;;;1.98;0.60;;;;;;;19.07;37.25;98865.75;5093411;28;20028;-46
2023/11/07 10:46:06;;;;;;;3.80;0.63;;;;;;;19.03;37.02;98867.31;5092235;28;20035;-46
2023/11/07 10:48:38;;;;;;;5.82;0.60;;;;;;;19.18;37.19;98867.47;5093460;28;20055;-46
2023/11/07 10:51:13;;;;;;;5.53;1.90;;;;;;;19.80;36.49;98868.78;5093392;28;20020;-46
2023/11/07 10:53:41;;;;;;;3.13;0.88;;;;;;;20.22;35.74;98872.47;5091946;28;20410;-46
2023/11/07 10:56:18;;;;;;;1.42;0.47;;;;;;;20.14;35.22;98871.94;5093497;28;20036;-46
2023/11/07 10:58:54;;;;;;;2.58;0.82;;;;;;;19.69;35.38;98867.88;5091835;28;20028;-46
2023/11/07 11:01:20;;;;;;;1.20;0.47;;;;;;;19.30;36.58;98860.13;5093673;28;20036;-46
2023/11/07 11:03:52;;;;;;;2.75;0.50;;;;;;;19.59;38.28;98859.81;5093229;28;20394;-46
2023/11/07 11:06:23;;;;;;;2.58;0.50;;;;;;;20.29;37.78;98851.75;5091768;28;20614;-46
2023/11/07 11:08:50;;;;;;;1.10;0.50;;;;;;;22.16;35.82;98855.94;5092949;28;20081;-46
2023/11/07 11:11:17;;;;;;;1.67;1.20;;;;;;;23.73;33.63;98833.06;5091612;28;20020;-46
2023/11/07 11:13:43;;;;;;;3.55;0.80;;;;;;;23.75;33.04;98835.44;5092903;28;20480;-46
2023/11/07 11:16:12;;;;;;;1.05;0.40;;;;;;;24.56;30.38;98824.91;5092733;28;20023;-47
2023/11/07 11:19:19;;;;;;;1.00;0.60;;;;;;;24.86;30.16;98821.00;5092558;28;20509;-46
2023/11/07 11:22:03;;;;;;;4.15;0.98;;;;;;;24.90;32.47;98819.31;5030357;28;20172;-46
2023/11/07 11:24:40;;;;;;;0.55;0.35;;;;;;;23.64;29.46;98822.16;5013738;28;20040;-47
2023/11/07 11:27:18;;;;;;;2.15;0.60;;;;;;;23.04;30.62;98819.72;5030275;28;20057;-46
2023/11/07 11:29:49;;;;;;;0.95;0.60;;;;;;;23.92;29.47;98809.84;4997362;28;20025;-47
2023/11/07 11:32:29;;;;;;;3.20;0.60;;;;;;;24.21;29.16;98811.63;5014336;28;20083;-47
2023/11/07 11:35:23;;;;;;;0.75;0.40;;;;;;;25.07;28.16;98816.09;5030168;28;20025;-47